Aérodrome :







RETROUVEZ-NOUS SUR...

 
LOGIN :

S'inscrire | Disclaimer

   EN    FR    IT 

 









Légende :    VFR   VFR Marginal   IFR   IFR Intensif   IFR Très Intensif
Visi : 
Plafond : 
>= 8 km
>= 3000ft
5 à 8 km
1000 à 3000 ft
1500m à 5 km
500 à 1000 ft
800 à 1500m
200 à 500 ft
< 800m
< 200 ft
Symboles :   Orages  Brouillard  Fortes neiges  Fortes précipitations  Vent > 20 kt






- Altitude de l'aérodrome : 49 ft


KOWD - Norwood Memorial

DERNIER METAR :
  • 230053Z 28016G26KT 10SM CLR 06/M04 A2970 RMK AO2 PK WND 28027/0031 SLP058 T00611044

METARs EXPIRÉS :
  • 222353Z 28015G27KT 10SM OVC050 07/M03 A2968 RMK AO2 PK WND 28027/2345 SLP051 60012 T00721028 10139 20067 53030
  • 222253Z 29015G26KT 10SM BKN047 07/M01 A2965 RMK AO2 PK WND 29027/2204 SLP038 T00671011

TAF N/A



MET'MAP, la Météo Aéronautique d'un coup d'oeil ! - Copyright ORBIFLY Décembre 2007 - Disclaimer

ORBIFLY MET'MAP TEAM :

Programmation & Développement : Alexandra Zaïnal
Conception & Développement : Baudouin d'Aumeries
Co-Programmation & Développement : Marc-Olivier Méhu
Soutien technique & logistique : Manuel Goepfert

Contact : metmap@orbifly.com




SOURCES & CREDITS :

   NOAA